Home > Products > Valid Products > MTR

000
SAUS44 KMAF 261610
MTRGDP
METAR KGDP 261551Z AUTO 23020KT 10SM CLR 06/M13 A3034 RMK AO2 SLP265
T00561133





000
SAUS44 KMAF 261554
MTR6R6
METAR K6R6 261553Z AUTO 25015G24KT 16/M12 A3026 RMK AO1 SLP233
T01611122





000
SAUS44 KMAF 261510
MTRGDP
METAR KGDP 261451Z AUTO 23017KT 10SM CLR 03/M14 A3032 RMK AO2 SLP264
T00331139 51019





000
SAUS44 KMAF 261510
MTRGDP
METAR KGDP 261451Z AUTO 23017KT 10SM CLR 03/M14 A3032 RMK AO2 SLP264
T00331139 51019





000
SAUS44 KMAF 261454
MTR6R6
METAR K6R6 261453Z AUTO 27013G20KT 13/M12 A3025 RMK AO1 SLP229
T01331117 51021





000
SAUS44 KMAF 261410
MTRGDP
METAR KGDP 261351Z AUTO 24018KT 10SM CLR 02/M14 A3030 RMK AO2 SLP258
T00221139





000
SAUS44 KMAF 261354
MTR6R6
METAR K6R6 261353Z AUTO 26012KT 10/M11 A3023 RMK AO1 SLP225
T01001111





000
SAUS44 KMAF 261310
MTRGDP
METAR KGDP 261251Z AUTO 25020KT 10SM CLR 02/M14 A3029 RMK AO2 PK WND
23026/1152 SLP250 T00221144





000
SAUS44 KMAF 261254
MTR6R6
METAR K6R6 261253Z AUTO 27012KT 09/M11 A3021 RMK AO1 SLP217
T00941106





000
SAUS44 KMAF 261211 COR
MTRGDP
METAR KGDP 261151Z AUTO 23025KT 10SM CLR 02/M14 A3025 RMK AO2 PK WND
24031/1119 SLP238 T00171139 10044 20017 53003





000
SAUS44 KMAF 261210
MTRGDP
METAR KGDP 261151Z AUTO 23025KT 10SM CLR 02/M14 A3025 RMK AO2 PK WND
24031/1119 SLP238 T00171139 10044 20017 53003





000
SAUS44 KMAF 261154
MTR6R6
METAR K6R6 261153Z AUTO 25013KT 09/M11 A3018 RMK AO1 SLP207
T00941111 10111 20067 55000





000
SAUS44 KMAF 261110
MTRGDP
METAR KGDP 261051Z AUTO 24024KT 10SM CLR 02/M14 A3025 RMK AO2 PK WND
24031/1030 SLP230 T00221139





000
SAUS44 KMAF 261054
MTR6R6
METAR K6R6 261053Z AUTO 27013KT 10/M11 A3018 RMK AO1 SLP203
T01001111





000
SAUS44 KMAF 261010
MTRGDP
METAR KGDP 260951Z AUTO 24027KT 10SM CLR 03/M14 A3024 RMK AO2 PK WND
26034/0853 SLP221 T00331139





000
SAUS44 KMAF 261010
MTRGDP
METAR KGDP 260951Z AUTO 24027KT 10SM CLR 03/M14 A3024 RMK AO2 PK WND
26034/0853 SLP221 T00331139





000
SAUS44 KMAF 260954
MTR6R6
METAR K6R6 260953Z AUTO 26013G21KT 11/M12 A3018 RMK AO1 SLP201
T01061117





000
SAUS44 KMAF 260954
MTR6R6
METAR K6R6 260953Z AUTO 26013G21KT 11/M12 A3018 RMK AO1 SLP201
T01061117





000
SAUS44 KMAF 260910
MTRGDP
METAR KGDP 260851Z AUTO 25029KT 10SM CLR 04/M13 A3024 RMK AO2 PK WND
26036/0808 SLP222 T00391133 55008





000
SAUS44 KMAF 260854
MTR6R6
METAR K6R6 260853Z AUTO 26011KT 09/M10 A3018 RMK AO1 SLP205
T00941100 55000





000
SAUS44 KMAF 260809
MTRGDP
METAR KGDP 260751Z AUTO 26031KT 10SM CLR 03/M13 A3023 RMK AO2 PK WND
26037/0744 SLP220 T00331133





000
SAUS44 KMAF 260754
MTR6R6
METAR K6R6 260753Z AUTO 25010KT 09/M10 A3018 RMK AO1 SLP204
T00891100





000
SAUS44 KMAF 260711 COR
MTRGDP
METAR KGDP 260651Z AUTO 25028KT 10SM CLR 03/M14 A3026 RMK AO2 PK WND
25029/0651 SLP232 T00331139 401001017





000
SAUS44 KMAF 260710
MTRGDP
METAR KGDP 260651Z AUTO 25028KT 10SM CLR 03/M14 A3026 RMK AO2 PK WND
25029/0651 SLP232 T00331139 401001017





000
SAUS44 KMAF 260710 COR
MTRGDP
METAR KGDP 260651Z AUTO 25028KT 10SM CLR 03/M14 A3026 RMK AO2 PK WND
25029/0651 SLP232 T00331139 401001017





000
SAUS44 KMAF 260654
MTR6R6
METAR K6R6 260653Z AUTO 27009KT 09/M09 A3019 RMK AO1 SLP207
T00891094





000
SAUS44 KMAF 260611 COR
MTRGDP
METAR KGDP 260551Z AUTO 24024KT 10SM CLR 03/M13 A3027 RMK AO2 PK WND
25031/0514 SLP240 T00281128 10061 20022 51012





000
SAUS44 KMAF 260610 COR
MTRGDP
METAR KGDP 260551Z AUTO 24024KT 10SM CLR 03/M13 A3027 RMK AO2 PK WND
25031/0514 SLP240 T00281128 10061 20022 51012





000
SAUS44 KMAF 260609
MTRGDP
METAR KGDP 260551Z AUTO 24024KT 10SM CLR 03/M13 A3027 RMK AO2 PK WND
25031/0514 SLP240 T00281128 10061 20022 51012





000
SAUS44 KMAF 260554
MTR6R6
METAR K6R6 260553Z AUTO 25005KT 08/M09 A3019 RMK AO1 SLP207
T00781089 10144 20078 401780039 58008





000
SAUS44 KMAF 260509
MTRGDP
METAR KGDP 260451Z AUTO 24024KT 10SM CLR 03/M13 A3026 RMK AO2 PK WND
23032/0417 SLP243 T00281133





000
SAUS44 KMAF 260454
MTR6R6
METAR K6R6 260453Z AUTO 25008KT 10/M09 A3019 RMK AO1 SLP210
T01001089





000
SAUS44 KMAF 260410
MTRGDP
METAR KGDP 260351Z AUTO 24028KT 10SM CLR 03/M13 A3025 RMK AO2 PK WND
24037/0304 SLP238 T00331133





000
SAUS44 KMAF 260410
MTRGDP
METAR KGDP 260351Z AUTO 24028KT 10SM CLR 03/M13 A3025 RMK AO2 PK WND
24037/0304 SLP238 T00331133





000
SAUS44 KMAF 260354
MTR6R6
METAR K6R6 260353Z AUTO 25005KT 08/M08 A3021 RMK AO1 SLP216
T00831078





000
SAUS44 KMAF 260310
MTRGDP
METAR KGDP 260251Z AUTO 24031KT 10SM CLR 03/M13 A3023 RMK AO2 PK WND
23034/0250 SLP235 T00331133 58004





000
SAUS44 KMAF 260254
MTR6R6
METAR K6R6 260253Z AUTO 24010KT 11/M09 A3021 RMK AO1 SLP219
T01061089 50003





000
SAUS44 KMAF 260210
MTRGDP
METAR KGDP 260151Z AUTO 24026KT 10SM CLR 04/M14 A3026 RMK AO2 PK WND
23036/0122 SLP245 T00441139





000
SAUS44 KMAF 260154
MTR6R6
METAR K6R6 260153Z AUTO 25008KT 08/M08 A3022 RMK AO1 SLP225
T00831078





000
SAUS44 KMAF 260110
MTRGDP
METAR KGDP 260051Z AUTO 23026KT 10SM CLR 06/M14 A3027 RMK AO2 PK WND
24036/0009 SLP251 T00561139





000
SAUS44 KMAF 260054
MTR6R6
METAR K6R6 260053Z AUTO 22006KT 11/M09 A3020 RMK AO1 SLP218
T01111094





000
SAUS44 KMAF 260016 COR
MTRGDP
METAR KGDP 252351Z AUTO 23026G33KT 10SM CLR 06/M14 A3024 RMK AO2 PK
WND 25039/2310 SLP237 T00611139 10100 20061 55003





000
SAUS44 KMAF 260011 COR
MTRGDP
METAR KGDP 252351Z AUTO 23026G33KT 10SM CLR 06/M14 A3024 RMK AO2 PK
WND 25039/2310 SLP237 T00611139 10100 20061 55003





000
SAUS44 KMAF 260010 COR
MTRGDP
METAR KGDP 252351Z AUTO 23026G33KT 10SM CLR 06/M14 A3024 RMK AO2 PK
WND 25039/2310 SLP237 T00611139 10100 20061 55003





000
SAUS44 KMAF 260010
MTRGDP
METAR KGDP 252351Z AUTO 23026G33KT 10SM CLR 06/M14 A3024 RMK AO2 PK
WND 25039/2310 SLP237 T00611139 10100 20061 55003





000
SAUS44 KMAF 252354
MTR6R6
METAR K6R6 252353Z AUTO 21007KT 14/M12 A3020 RMK AO1 SLP214
T01441122 10178 20144 56016





000
SAUS44 KMAF 252309
MTRGDP
METAR KGDP 252251Z AUTO 25032G39KT 10SM CLR 08/M15 A3023 RMK AO2 PK
WND 24039/2251 SLP227 T00831150





000
SAUS44 KMAF 252254
MTR6R6
METAR K6R6 252253Z AUTO 23008KT 17/M12 A3022 RMK AO1 SLP217
T01721122





000
SAUS44 KMAF 252209
MTRGDP
METAR KGDP 252151Z AUTO 24030G39KT 10SM CLR 09/M15 A3025 RMK AO2 PK
WND 24039/2146 SLP230 T00941150





000
SAUS44 KMAF 252154
MTR6R6
METAR K6R6 252153Z AUTO 22009KT 18/M09 A3022 RMK AO1 SLP220
T01781094





000
SAUS44 KMAF 252154
MTR6R6
METAR K6R6 252153Z AUTO 22009KT 18/M09 A3022 RMK AO1 SLP220
T01781094





000
SAUS44 KMAF 252110
MTRGDP
METAR KGDP 252051Z AUTO 24028G35KT 10SM CLR 09/M13 A3025 RMK AO2 PK
WND 24039/2000 PRESFR SLP228 T00941133 56036





000
SAUS44 KMAF 252054
MTR6R6
METAR K6R6 252053Z AUTO 28007G14KT 17/M12 A3026 RMK AO1 SLP232
T01721117 56038





000
SAUS44 KMAF 252010
MTRGDP
METAR KGDP 251951Z AUTO 25027G33KT 10SM CLR 09/M11 A3029 RMK AO2 PK
WND 26036/1920 SLP241 T00941106





000
SAUS44 KMAF 251954
MTR6R6
METAR K6R6 251953Z AUTO VRB06KT 17/M08 A3028 RMK AO1 SLP242
T01671083





000
SAUS44 KMAF 251910
MTRGDP
METAR KGDP 251851Z AUTO 25030G38KT 10SM CLR 08/M11 A3033 RMK AO2 PK
WND 25038/1848 SLP256 T00781106





000
SAUS44 KMAF 251854
MTR6R6
METAR K6R6 251853Z AUTO 35005KT 16/M07 A3032 RMK AO1 SLP256
T01561067





000
SAUS44 KMAF 251811 COR
MTRGDP
METAR KGDP 251751Z AUTO 25022G28KT 10SM CLR 07/M11 A3038 RMK AO2 PK
WND 24028/1748 SLP272 T00721106 10072 21017 58010





000
SAUS44 KMAF 251810 COR
MTRGDP
METAR KGDP 251751Z AUTO 25022G28KT 10SM CLR 07/M11 A3038 RMK AO2 PK
WND 24028/1748 SLP272 T00721106 10072 21017 58010





000
SAUS44 KMAF 251809
MTRGDP
METAR KGDP 251751Z AUTO 25022G28KT 10SM CLR 07/M11 A3038 RMK AO2 PK
WND 24028/1748 SLP272 T00721106 10072 21017 58010





000
SAUS44 KMAF 251755
MTR6R6
METAR K6R6 251753Z AUTO 00000KT 15/M06 A3037 RMK AO1 SLP276
T01501056 10156 20067 50008





000
SAUS44 KMAF 251658
MTR6R6
METAR K6R6 251653Z AUTO 33005KT 14/M05 A3039 RMK AO1 SLP281
T01391050





000
SAUS44 KMAF 251658
MTR6R6
METAR K6R6 251653Z AUTO 33005KT 14/M05 A3039 RMK AO1 SLP281
T01391050





000
SAUS44 KMAF 251609
MTRGDP
METAR KGDP 251551Z AUTO 23011KT 10SM CLR 04/M10 A3042 RMK AO2 SLP294
T00391100





000
SAUS44 KMAF 251554
MTR6R6
METAR K6R6 251553Z AUTO 32009KT 12/M06 A3039 RMK AO1 SLP283
T01221056





000
SAUS44 KMAF 251509
MTRGDP
METAR KGDP 251451Z AUTO 23003KT 10SM CLR 02/M11 A3041 RMK AO2 SLP295
T00221106 52015





000
SAUS44 KMAF 251454
MTR6R6
METAR K6R6 251453Z AUTO 32016G21KT 09/M06 A3035 RMK AO1 SLP269
T00941061 51029





000
SAUS44 KMAF 251409
MTRGDP
METAR KGDP 251351Z AUTO 08005KT 10SM CLR 01/M11 A3040 RMK AO2 SLP292
T00061106





000
SAUS44 KMAF 251354
MTR6R6
METAR K6R6 251353Z AUTO 31013KT 09/M08 A3031 RMK AO1 SLP256
T00891083





000
SAUS44 KMAF 251309
MTRGDP
METAR KGDP 251251Z AUTO 07012KT 10SM CLR M01/M11 A3038 RMK AO2
SLP287 T10111106





000
SAUS44 KMAF 251254
MTR6R6
METAR K6R6 251253Z AUTO 31009KT 08/M09 A3029 RMK AO1 SLP247
T00781089





000
SAUS44 KMAF 251209
MTRGDP
METAR KGDP 251151Z AUTO 05010KT 10SM CLR 00/M11 A3036 RMK AO2 SLP279
T00001106 10044 21011 53023





000
SAUS44 KMAF 251154
MTR6R6
METAR K6R6 251153Z AUTO 30010KT 07/M08 A3025 RMK AO1 SLP233
T00721083 10072 20039 53022





000
SAUS44 KMAF 251109
MTRGDP
METAR KGDP 251051Z AUTO 05014KT 10SM CLR 00/M12 A3033 RMK AO2 SLP263
T00001117





000
SAUS44 KMAF 251054
MTR6R6
METAR K6R6 251053Z AUTO 30008KT 06/M05 A3022 RMK AO1 SLP219
T00561050





000
SAUS44 KMAF 251054
MTR6R6
METAR K6R6 251053Z AUTO 30008KT 06/M05 A3022 RMK AO1 SLP219
T00561050





000
SAUS44 KMAF 251009
MTRGDP
METAR KGDP 250951Z AUTO 04018KT 10SM CLR 01/M12 A3030 RMK AO2 SLP248
T00111122





000
SAUS44 KMAF 250954
MTR6R6
METAR K6R6 250953Z AUTO 31006KT 05/M04 A3019 RMK AO1 SLP210
T00501044





000
SAUS44 KMAF 250909
MTRGDP
METAR KGDP 250851Z AUTO 03013KT 10SM CLR 02/M12 A3028 RMK AO2 SLP236
T00221117 53016





000
SAUS44 KMAF 250854
MTR6R6
METAR K6R6 250853Z AUTO 32005KT 05/M05 A3018 RMK AO1 SLP207
T00501050 53012





000
SAUS44 KMAF 250809
MTRGDP
METAR KGDP 250751Z AUTO 04014KT 10SM BKN110 03/M13 A3026 RMK AO2 PK
WND 05026/0703 SLP230 T00281128





000
SAUS44 KMAF 250754
MTR6R6
METAR K6R6 250753Z AUTO 36007KT 05/M06 A3017 RMK AO1 SLP202
T00501056





000
SAUS44 KMAF 250709
MTRGDP
METAR KGDP 250651Z AUTO 04020KT 10SM BKN100 OVC110 04/M14 A3024 RMK
AO2 SLP219 T00391144 401171006





000
SAUS44 KMAF 250654
MTR6R6
METAR K6R6 250653Z AUTO 35003KT 04/M06 A3015 RMK AO1 SLP198
T00441056





000
SAUS44 KMAF 250609
MTRGDP
METAR KGDP 250551Z AUTO 01012G18KT 10SM SCT110 04/M13 A3023 RMK AO2
SLP214 T00441133 10061 20039 53015





000
SAUS44 KMAF 250554
MTR6R6
METAR K6R6 250553Z AUTO 30003KT 04/M06 A3015 RMK AO1 SLP197
T00391056 10139 20039 401830033 51014





000
SAUS44 KMAF 250509
MTRGDP
METAR KGDP 250451Z AUTO 02009KT 10SM OVC100 04/M15 A3021 RMK AO2
SLP213 T00441150





000
SAUS44 KMAF 250454
MTR6R6
METAR K6R6 250453Z AUTO 30005KT 07/M07 A3015 RMK AO1 SLP195
T00671067





000
SAUS44 KMAF 250409
MTRGDP
METAR KGDP 250351Z AUTO 04015KT 10SM BKN120 05/M15 A3018 RMK AO2 PK
WND 02028/0333 SLP209 T00501150





000
SAUS44 KMAF 250355
MTR6R6
METAR K6R6 250353Z AUTO 28005KT 06/M06 A3013 RMK AO1 SLP192
T00611061





000
SAUS44 KMAF 250355
MTR6R6
METAR K6R6 250353Z AUTO 28005KT 06/M06 A3013 RMK AO1 SLP192
T00611061





000
SAUS44 KMAF 250309
MTRGDP
METAR KGDP 250251Z AUTO 03012KT 10SM BKN110 05/M16 A3017 RMK AO2
SLP211 T00501156 51029





000
SAUS44 KMAF 250255
MTR6R6
METAR K6R6 250253Z AUTO 05005KT 07/M06 A3010 RMK AO1 SLP183
T00721061 53018





000
SAUS44 KMAF 250210
MTRGDP
METAR KGDP 250151Z AUTO 35009KT 10SM CLR 06/M18 A3015 RMK AO2 SLP204
T00561178





000
SAUS44 KMAF 250155
MTR6R6
METAR K6R6 250153Z AUTO 03006KT 08/M06 A3008 RMK AO1 SLP180
T00831056





000
SAUS44 KMAF 250109
MTRGDP
METAR KGDP 250051Z AUTO 31007KT 10SM CLR 06/M19 A3012 RMK AO2 SLP193
T00611194





000
SAUS44 KMAF 250054
MTR6R6
METAR K6R6 250053Z AUTO 06006KT 10/M06 A3006 RMK AO1 SLP171
T01001061





000
SAUS44 KMAF 250011 COR
MTRGDP
METAR KGDP 242351Z AUTO 26018KT 10SM CLR 06/M19 A3007 RMK AO2 PK WND
26032/2311 SLP178 T00611194 10117 20061 53015





000
SAUS44 KMAF 250010 COR
MTRGDP
METAR KGDP 242351Z AUTO 26018KT 10SM CLR 06/M19 A3007 RMK AO2 PK WND
26032/2311 SLP178 T00611194 10117 20061 53015





000
SAUS44 KMAF 250009
MTRGDP
METAR KGDP 242351Z AUTO 26018KT 10SM CLR 06/M19 A3007 RMK AO2 PK WND
26032/2311 SLP178 T00611194 10117 20061 53015





000
SAUS44 KMAF 242354
MTR6R6
METAR K6R6 242353Z AUTO 03005KT 14/M09 A3005 RMK AO1 SLP163
T01391089 10183 20139 53009





000
SAUS44 KMAF 242309
MTRGDP
METAR KGDP 242251Z AUTO 26027G35KT 10SM CLR 09/M20 A3005 RMK AO2 PK
WND 27039/2235 SLP160 T00891200





000
SAUS44 KMAF 242254
MTR6R6
METAR K6R6 242253Z AUTO 33008KT 17/M13 A3003 RMK AO1 SLP152
T01721128





000
SAUS44 KMAF 242209
MTRGDP
METAR KGDP 242151Z AUTO 25032G41KT 10SM CLR 10/M21 A3002 RMK AO2 PK
WND 26043/2134 SLP148 T01001211





000
SAUS44 KMAF 242155
MTR6R6
METAR K6R6 242153Z AUTO 02008KT 18/M12 A3002 RMK AO1 SLP150
T01781122





000
SAUS44 KMAF 242155
MTR6R6
METAR K6R6 242153Z AUTO 02008KT 18/M12 A3002 RMK AO1 SLP150
T01781122





000
SAUS44 KMAF 242109
MTRGDP
METAR KGDP 242051Z AUTO 26033G40KT 10SM CLR 11/M22 A3002 RMK AO2 PK
WND 27040/2042 SLP144 T01111217 56029





000
SAUS44 KMAF 242054
MTR6R6
METAR K6R6 242053Z AUTO 34005KT 18/M12 A3002 RMK AO1 SLP144
T01781117





000
SAUS44 KMAF 242009
MTRGDP
METAR KGDP 241951Z AUTO 26031G37KT 10SM CLR 11/M18 A3004 RMK AO2 PK
WND 25037/1949 SLP152 T01061183





000
SAUS44 KMAF 241954
MTR6R6
METAR K6R6 241953Z AUTO 00000KT 17/M11 A3003 RMK AO1 SLP151
T01721106 $





000
SAUS44 KMAF 241909
MTRGDP
METAR KGDP 241851Z AUTO 25020G30KT 10SM CLR 10/M17 A3008 RMK AO2 PK
WND 26030/1845 SLP169 T01001167





000
SAUS44 KMAF 241854
MTR6R6
METAR K6R6 241853Z AUTO VRB06KT 17/M11 A3007 RMK AO1 SLP163
T01671111





000
SAUS44 KMAF 241811 COR
MTRGDP
METAR KGDP 241751Z AUTO 25022G28KT 10SM CLR 09/M17 A3012 RMK AO2 PK
WND 26028/1747 SLP180 T00941172 10100 21006 58001





000
SAUS44 KMAF 241810 COR
MTRGDP
METAR KGDP 241751Z AUTO 25022G28KT 10SM CLR 09/M17 A3012 RMK AO2 PK
WND 26028/1747 SLP180 T00941172 10100 21006 58001





000
SAUS44 KMAF 241809
MTRGDP
METAR KGDP 241751Z AUTO 25022G28KT 10SM CLR 09/M17 A3012 RMK AO2 PK
WND 26028/1747 SLP180 T00941172 10100 21006 58001





000
SAUS44 KMAF 241754
MTR6R6
METAR K6R6 241753Z AUTO VRB04KT 16/M08 A3011 RMK AO1 SLP178
T01611083 10161 20033 58003





000
SAUS44 KMAF 241709
MTRGDP
METAR KGDP 241651Z AUTO 25018G25KT 10SM CLR 07/M14 A3013 RMK AO2
SLP197 T00721144





000
SAUS44 KMAF 241654
MTR6R6
METAR K6R6 241653Z AUTO 23003KT 15/M08 A3013 RMK AO1 SLP185
T01501078





000
SAUS44 KMAF 241609
MTRGDP
METAR KGDP 241551Z AUTO 25011KT 10SM CLR 05/M13 A3014 RMK AO2 SLP198
T00501128





000
SAUS44 KMAF 241554
MTR6R6
METAR K6R6 241553Z AUTO 28005KT 14/M07 A3013 RMK AO1 SLP182
T01391067





000
SAUS44 KMAF 241509
MTRGDP
METAR KGDP 241451Z AUTO 26011KT 10SM CLR 03/M13 A3012 RMK AO2 SLP191
T00281128 53010





000
SAUS44 KMAF 241454
MTR6R6
METAR K6R6 241453Z AUTO 27005KT 11/M03 A3012 RMK AO1 SLP180
T01061028 53022





000
SAUS44 KMAF 241409
MTRGDP
METAR KGDP 241351Z AUTO VRB03KT 10SM CLR 01/M14 A3010 RMK AO2 SLP179
T00111144





000
SAUS44 KMAF 241354
MTR6R6
METAR K6R6 241353Z AUTO 23005KT 04/M02 A3009 RMK AO1 SLP175
T00441022





000
SAUS44 KMAF 241309
MTRGDP
METAR KGDP 241251Z AUTO 25015KT 10SM CLR 00/M14 A3008 RMK AO2 SLP174
T00001139





000
SAUS44 KMAF 241254
MTR6R6
METAR K6R6 241253Z AUTO 00000KT 05/M02 A3006 RMK AO1 SLP166
T00501017





000
SAUS44 KMAF 241209
MTRGDP
METAR KGDP 241151Z AUTO VRB06KT 10SM CLR 01/M13 A3009 RMK AO2 SLP171
T00061128 10039 20000 53004





000
SAUS44 KMAF 241154
MTR6R6
METAR K6R6 241153Z AUTO 36004KT 04/M02 A3005 RMK AO1 SLP157
T00441022 10122 20039 52010





000
SAUS44 KMAF 241109
MTRGDP
METAR KGDP 241051Z AUTO 22012G16KT 10SM CLR 02/M11 A3007 RMK AO2
SLP160 T00171106





000
SAUS44 KMAF 241054
MTR6R6
METAR K6R6 241053Z AUTO 30009KT 08/M02 A3003 RMK AO1 SLP148
T00781022





000
SAUS44 KMAF 241009
MTRGDP
METAR KGDP 240951Z AUTO VRB05KT 10SM CLR 01/M06 A3008 RMK AO2 SLP159
T00111061





000
SAUS44 KMAF 241009
MTRGDP
METAR KGDP 240951Z AUTO VRB05KT 10SM CLR 01/M06 A3008 RMK AO2 SLP159
T00111061





000
SAUS44 KMAF 240954
MTR6R6
METAR K6R6 240953Z AUTO 27008KT 07/M02 A3003 RMK AO1 SLP146
T00721017





000
SAUS44 KMAF 240954
MTR6R6
METAR K6R6 240953Z AUTO 27008KT 07/M02 A3003 RMK AO1 SLP146
T00721017





000
SAUS44 KMAF 240909
MTRGDP
METAR KGDP 240851Z AUTO 21007KT 10SM CLR 02/M07 A3008 RMK AO2 SLP157
T00171072 51008





000
SAUS44 KMAF 240854
MTR6R6
METAR K6R6 240853Z AUTO 21006KT 12/M03 A3002 RMK AO1 SLP139
T01171033 53019





000
SAUS44 KMAF 240809
MTRGDP
METAR KGDP 240751Z AUTO 22008KT 10SM CLR 02/M07 A3007 RMK AO2 SLP154
T00221072





000
SAUS44 KMAF 240754
MTR6R6
METAR K6R6 240753Z AUTO 25007KT 10/M01 A2999 RMK AO1 SLP131
T01001011





000
SAUS44 KMAF 240709
MTRGDP
METAR KGDP 240651Z AUTO 22009KT 10SM CLR 02/M07 A3006 RMK AO2 SLP148
T00221067 401560006





000
SAUS44 KMAF 240654
MTR6R6
METAR K6R6 240653Z AUTO 34013G25KT 11/M01 A2997 RMK AO1 PK WND
34027/0617 SLP125 T01061006





000
SAUS44 KMAF 240609
MTRGDP
METAR KGDP 240551Z AUTO 00000KT 10SM CLR 03/M07 A3005 RMK AO2 SLP144
T00331067 10111 20006 51016





000
SAUS44 KMAF 240558 COR
MTR6R6
METAR K6R6 240553Z AUTO 34017G24KT 12/00 A2996 RMK AO1 PK WND
35031/0510 SLP119 T01170000 10233 20117 402720100





000
SAUS44 KMAF 240556 COR
MTR6R6
METAR K6R6 240553Z AUTO 34017G24KT 12/00 A2996 RMK AO1 PK WND
35031/0510 SLP119 T01170000 10233 20117 402720100





000
SAUS44 KMAF 240555 COR
MTR6R6
METAR K6R6 240553Z AUTO 34017G24KT 12/00 A2996 RMK AO1 PK WND
35031/0510 SLP119 T01170000 10233 20117 402720100





000
SAUS44 KMAF 240554
MTR6R6
METAR K6R6 240553Z AUTO 34017G24KT 12/00 A2996 RMK AO1 PK WND
35031/0510 SLP119 T01170000 10233 20117 402720100





000
SAUS44 KMAF 240509
MTRGDP
METAR KGDP 240451Z AUTO 08015KT 10SM CLR 01/M03 A3003 RMK AO2 PK WND
09026/0358 SLP145 T00061033





000
SAUS44 KMAF 240454
MTR6R6
METAR K6R6 240453Z AUTO 36018G29KT 13/00 A2991 RMK AO1 PK WND
35029/0431 SLP103 T01330000





000
SAUS44 KMAF 240409
MTRGDP
METAR KGDP 240351Z AUTO 08018KT 10SM CLR 02/M03 A3001 RMK AO2 PK WND
10027/0330 SLP141 T00221028





000
SAUS44 KMAF 240409
MTRGDP
METAR KGDP 240351Z AUTO 08018KT 10SM CLR 02/M03 A3001 RMK AO2 PK WND
10027/0330 SLP141 T00221028





000
SAUS44 KMAF 240354
MTR6R6
METAR K6R6 240353Z AUTO 35017G29KT 17/M03 A2987 RMK AO1 PK WND
35033/0343 SLP088 T01721033





000
SAUS44 KMAF 240354
MTR6R6
METAR K6R6 240353Z AUTO 35017G29KT 17/M03 A2987 RMK AO1 PK WND
35033/0343 SLP088 T01721033





000
SAUS44 KMAF 240309
MTRGDP
METAR KGDP 240251Z AUTO 10011KT 10SM CLR 06/M07 A2999 RMK AO2 SLP129
T00611067 51044





000
SAUS44 KMAF 240254
MTR6R6
METAR K6R6 240253Z AUTO 30008KT 18/M04 A2983 RMK AO1 SLP074
T01831039 51039





000
SAUS44 KMAF 240209
MTRGDP
METAR KGDP 240151Z AUTO 28015G20KT 10SM CLR 09/M14 A2995 RMK AO2 PK
WND 27028/0127 SLP114 T00891139





000
SAUS44 KMAF 240154
MTR6R6
METAR K6R6 240153Z AUTO 31008KT 17/M04 A2980 RMK AO1 SLP068
T01721039





000
SAUS44 KMAF 240109
MTRGDP
METAR KGDP 240051Z AUTO 26021G28KT 10SM CLR 09/M10 A2991 RMK AO2 PK
WND 25045/2352 SLP099 T00941100





000
SAUS44 KMAF 240054
MTR6R6
METAR K6R6 240053Z AUTO 31009KT 19/M03 A2975 RMK AO1 SLP050
T01941033





000
SAUS44 KMAF 240011 COR
MTRGDP
METAR KGDP 232351Z AUTO 25035G44KT 8SM CLR 11/M07 A2984 RMK AO2 PK
WND 25049/2323 SLP071 T01111072 10156 20111 51022





000
SAUS44 KMAF 240010 COR
MTRGDP
METAR KGDP 232351Z AUTO 25035G44KT 8SM CLR 11/M07 A2984 RMK AO2 PK
WND 25049/2323 SLP071 T01111072 10156 20111 51022





000
SAUS44 KMAF 240009
MTRGDP
METAR KGDP 232351Z AUTO 25035G44KT 8SM CLR 11/M07 A2984 RMK AO2 PK
WND 25049/2323 SLP071 T01111072 10156 20111 51022





000
SAUS44 KMAF 232354
MTR6R6
METAR K6R6 232353Z AUTO 29010KT 23/M06 A2970 RMK AO1 PK WND
27027/2317 SLP031 T02331056 10272 20233 53022





000
SAUS44 KMAF 232310 COR
MTRGDP
METAR KGDP 232251Z AUTO 25030G37KT 8SM CLR 13/M07 A2983 RMK AO2 PK
WND 25049/2232 PRESRR SLP062 T01281067





000
SAUS44 KMAF 232309
MTRGDP
METAR KGDP 232251Z AUTO 25030G37KT 8SM CLR 13/M07 A2983 RMK AO2 PK
WND 25049/2232 PRESRR SLP062 T01281067





000
SAUS44 KMAF 232254
MTR6R6
METAR K6R6 232253Z AUTO 26018G28KT 26/M04 A2966 RMK AO1 PK WND
27029/2237 SLP017 T02561044





000
SAUS44 KMAF 232210 COR
MTRGDP
METAR KGDP 232151Z AUTO 24035G49KT 7SM BKN035 BKN075 14/M06 A2978
RMK AO2 PK WND 25055/2054 SLP045 T01391061





000
SAUS44 KMAF 232209
MTRGDP
METAR KGDP 232151Z AUTO 24035G49KT 7SM BKN035 BKN075 14/M06 A2978
RMK AO2 PK WND 25055/2054 SLP045 T01391061





000
SAUS44 KMAF 232154
MTR6R6
METAR K6R6 232153Z AUTO 27018G30KT 27/M04 A2964 RMK AO1 PK WND
25031/2104 SLP009 T02671039





000
SAUS44 KMAF 232154
MTR6R6
METAR K6R6 232153Z AUTO 27018G30KT 27/M04 A2964 RMK AO1 PK WND
25031/2104 SLP009 T02671039





000
SAUS44 KMAF 232109
MTRGDP
METAR KGDP 232051Z AUTO 25039G53KT 8SM CLR 14/M05 A2976 RMK AO2 PK
WND 25053/2048 SLP035 T01441050 56015





000
SAUS44 KMAF 232054
MTR6R6
METAR K6R6 232053Z AUTO 25024G33KT 27/M03 A2964 RMK AO1 PK WND
24033/2047 SLP008 T02671033 56030





000
SAUS44 KMAF 232009
MTRGDP
METAR KGDP 231951Z AUTO 24041G53KT 9SM CLR 14/M04 A2976 RMK AO2 PK
WND 24053/1948 SLP034 T01441044





000
SAUS44 KMAF 231954
MTR6R6
METAR K6R6 231953Z AUTO 24021G30KT 26/M01 A2964 RMK AO1 PK WND
25036/1905 SLP011 T02611011





000
SAUS44 KMAF 231954
MTR6R6
METAR K6R6 231953Z AUTO 24021G30KT 26/M01 A2964 RMK AO1 PK WND
25036/1905 SLP011 T02611011





000
SAUS44 KMAF 231916 COR
MTRGDP
METAR KGDP 231851Z AUTO 25039G46KT 10SM CLR 15/M04 A2979 RMK AO2 PK
WND 25051/1754 SLP042 T01501044





000
SAUS44 KMAF 231911 COR
MTRGDP
METAR KGDP 231851Z AUTO 25039G46KT 10SM CLR 15/M04 A2979 RMK AO2 PK
WND 25051/1754 SLP042 T01501044





000
SAUS44 KMAF 231910 COR
MTRGDP
METAR KGDP 231851Z AUTO 25039G46KT 10SM CLR 15/M04 A2979 RMK AO2 PK
WND 25051/1754 SLP042 T01501044





000
SAUS44 KMAF 231909
MTRGDP
METAR KGDP 231851Z AUTO 25039G46KT 10SM CLR 15/M04 A2979 RMK AO2 PK
WND 25051/1754 SLP042 T01501044





000
SAUS44 KMAF 231854
MTR6R6
METAR K6R6 231853Z AUTO 26017G32KT 25/M01 A2968 RMK AO1 PK WND
24036/1834 SLP024 T02501006





000
SAUS44 KMAF 231811 COR
MTRGDP
METAR KGDP 231751Z AUTO 24035G47KT 10SM CLR 14/M04 A2981 RMK AO2 PK
WND 25052/1716 SLP050 T01441044 10144 20072 58008





000
SAUS44 KMAF 231810 COR
MTRGDP
METAR KGDP 231751Z AUTO 24035G47KT 10SM CLR 14/M04 A2981 RMK AO2 PK
WND 25052/1716 SLP050 T01441044 10144 20072 58008





000
SAUS44 KMAF 231809
MTRGDP
METAR KGDP 231751Z AUTO 24035G47KT 10SM CLR 14/M04 A2981 RMK AO2 PK
WND 25052/1716 SLP050 T01441044 10144 20072 58008





000
SAUS44 KMAF 231754
MTR6R6
METAR K6R6 231753Z AUTO 26020G28KT 24/M01 A2973 RMK AO1 PK WND
25034/1718 SLP041 T02441006 10244 20133 58001





000
SAUS44 KMAF 231709
MTRGDP
METAR KGDP 231651Z AUTO 25038G50KT 9SM CLR 14/M05 A2983 RMK AO2 PK
WND 25050/1649 SLP058 T01391050





000
SAUS44 KMAF 231654
MTR6R6
METAR K6R6 231653Z AUTO 25022G30KT 23/00 A2974 RMK AO1 PK WND
24035/1607 SLP046 T02280000





    US Dept of Commerce
    National Oceanic and Atmospheric Administration
    National Weather Service
    1325 East West Highway
    Silver Spring, MD 20910
    Page Author: NWS Internet Services Team
Disclaimer
Information Quality
Credits
Glossary
Privacy Policy
Freedom of Information Act (FOIA)
About Us
Career Opportunities